sensor_id;sensor_type;location;lat;lon;timestamp;P1;durP1;ratioP1;P2;durP2;ratioP2
44588;SDS011;30298;52.562;13.414;2023-02-11T00:01:31;44.40;;;19.10;;
44588;SDS011;30298;52.562;13.414;2023-02-11T00:03:57;41.03;;;18.98;;
44588;SDS011;30298;52.562;13.414;2023-02-11T00:06:23;49.72;;;21.25;;
44588;SDS011;30298;52.562;13.414;2023-02-11T00:08:48;43.30;;;21.67;;
44588;SDS011;30298;52.562;13.414;2023-02-11T00:11:14;47.30;;;21.83;;
44588;SDS011;30298;52.562;13.414;2023-02-11T00:13:40;49.15;;;21.85;;
44588;SDS011;30298;52.562;13.414;2023-02-11T00:16:06;48.70;;;21.83;;
44588;SDS011;30298;52.562;13.414;2023-02-11T00:20:57;43.83;;;18.87;;
44588;SDS011;30298;52.562;13.414;2023-02-11T00:23:22;48.73;;;22.83;;
44588;SDS011;30298;52.562;13.414;2023-02-11T00:25:47;41.70;;;20.97;;
44588;SDS011;30298;52.562;13.414;2023-02-11T00:28:13;40.17;;;20.53;;
44588;SDS011;30298;52.562;13.414;2023-02-11T00:30:38;42.67;;;21.33;;
44588;SDS011;30298;52.562;13.414;2023-02-11T00:33:03;39.97;;;19.23;;
44588;SDS011;30298;52.562;13.414;2023-02-11T00:35:29;36.30;;;16.30;;
44588;SDS011;30298;52.562;13.414;2023-02-11T00:37:54;43.97;;;21.77;;
44588;SDS011;30298;52.562;13.414;2023-02-11T00:40:20;53.08;;;21.85;;
44588;SDS011;30298;52.562;13.414;2023-02-11T00:42:45;39.20;;;19.30;;
44588;SDS011;30298;52.562;13.414;2023-02-11T00:45:11;41.00;;;21.10;;
44588;SDS011;30298;52.562;13.414;2023-02-11T00:47:36;45.90;;;20.17;;
44588;SDS011;30298;52.562;13.414;2023-02-11T00:50:02;41.17;;;18.63;;
44588;SDS011;30298;52.562;13.414;2023-02-11T00:52:29;43.10;;;20.70;;
44588;SDS011;30298;52.562;13.414;2023-02-11T00:54:54;44.83;;;18.08;;
44588;SDS011;30298;52.562;13.414;2023-02-11T00:57:20;45.80;;;20.43;;
44588;SDS011;30298;52.562;13.414;2023-02-11T00:59:45;44.30;;;21.20;;
44588;SDS011;30298;52.562;13.414;2023-02-11T01:02:10;42.67;;;20.70;;
44588;SDS011;30298;52.562;13.414;2023-02-11T01:04:35;42.37;;;20.20;;
44588;SDS011;30298;52.562;13.414;2023-02-11T01:07:01;48.77;;;22.17;;
44588;SDS011;30298;52.562;13.414;2023-02-11T01:09:26;44.20;;;19.47;;
44588;SDS011;30298;52.562;13.414;2023-02-11T01:11:51;44.43;;;17.37;;
44588;SDS011;30298;52.562;13.414;2023-02-11T01:14:16;38.70;;;18.97;;
44588;SDS011;30298;52.562;13.414;2023-02-11T01:16:42;43.38;;;20.48;;
44588;SDS011;30298;52.562;13.414;2023-02-11T01:19:07;39.40;;;19.03;;
44588;SDS011;30298;52.562;13.414;2023-02-11T01:21:32;42.73;;;21.00;;
44588;SDS011;30298;52.562;13.414;2023-02-11T01:23:58;41.53;;;19.80;;
44588;SDS011;30298;52.562;13.414;2023-02-11T01:26:23;38.50;;;17.77;;
44588;SDS011;30298;52.562;13.414;2023-02-11T01:28:48;44.23;;;20.97;;
44588;SDS011;30298;52.562;13.414;2023-02-11T01:31:14;40.67;;;19.77;;
44588;SDS011;30298;52.562;13.414;2023-02-11T01:33:39;48.57;;;23.57;;
44588;SDS011;30298;52.562;13.414;2023-02-11T01:36:04;50.07;;;22.80;;
44588;SDS011;30298;52.562;13.414;2023-02-11T01:38:30;40.67;;;18.63;;
44588;SDS011;30298;52.562;13.414;2023-02-11T01:40:57;43.65;;;21.73;;
44588;SDS011;30298;52.562;13.414;2023-02-11T01:43:23;45.80;;;21.13;;
44588;SDS011;30298;52.562;13.414;2023-02-11T01:48:16;42.90;;;21.23;;
44588;SDS011;30298;52.562;13.414;2023-02-11T01:50:42;40.22;;;20.20;;
44588;SDS011;30298;52.562;13.414;2023-02-11T01:53:09;44.00;;;21.67;;
44588;SDS011;30298;52.562;13.414;2023-02-11T01:55:53;44.90;;;20.05;;
44588;SDS011;30298;52.562;13.414;2023-02-11T01:58:38;39.55;;;18.63;;
44588;SDS011;30298;52.562;13.414;2023-02-11T02:01:05;47.50;;;21.40;;
44588;SDS011;30298;52.562;13.414;2023-02-11T02:03:30;36.05;;;17.92;;
44588;SDS011;30298;52.562;13.414;2023-02-11T02:06:08;39.42;;;20.45;;
44588;SDS011;30298;52.562;13.414;2023-02-11T02:08:39;40.80;;;19.08;;
44588;SDS011;30298;52.562;13.414;2023-02-11T02:11:06;44.25;;;20.77;;
44588;SDS011;30298;52.562;13.414;2023-02-11T02:13:32;44.93;;;21.43;;
44588;SDS011;30298;52.562;13.414;2023-02-11T02:15:58;43.88;;;21.80;;
44588;SDS011;30298;52.562;13.414;2023-02-11T02:20:51;48.90;;;20.50;;
44588;SDS011;30298;52.562;13.414;2023-02-11T02:41:22;41.80;;;21.38;;
44588;SDS011;30298;52.562;13.414;2023-02-11T02:43:48;44.75;;;21.10;;
44588;SDS011;30298;52.562;13.414;2023-02-11T02:46:27;47.42;;;21.85;;
44588;SDS011;30298;52.562;13.414;2023-02-11T02:48:53;50.15;;;23.42;;
44588;SDS011;30298;52.562;13.414;2023-02-11T02:59:28;45.90;;;23.52;;
44588;SDS011;30298;52.562;13.414;2023-02-11T03:10:12;41.15;;;18.88;;
44588;SDS011;30298;52.562;13.414;2023-02-11T03:12:38;41.65;;;19.05;;
44588;SDS011;30298;52.562;13.414;2023-02-11T03:15:05;53.30;;;24.35;;
44588;SDS011;30298;52.562;13.414;2023-02-11T03:17:31;45.85;;;22.25;;
44588;SDS011;30298;52.562;13.414;2023-02-11T03:19:57;52.13;;;24.30;;
44588;SDS011;30298;52.562;13.414;2023-02-11T03:22:29;54.65;;;26.92;;
44588;SDS011;30298;52.562;13.414;2023-02-11T03:24:56;50.65;;;24.17;;
44588;SDS011;30298;52.562;13.414;2023-02-11T03:27:31;43.63;;;21.17;;
44588;SDS011;30298;52.562;13.414;2023-02-11T03:32:33;52.80;;;24.23;;
44588;SDS011;30298;52.562;13.414;2023-02-11T03:35:16;39.22;;;20.90;;
44588;SDS011;30298;52.562;13.414;2023-02-11T03:37:47;50.72;;;24.73;;
44588;SDS011;30298;52.562;13.414;2023-02-11T03:40:16;52.53;;;23.30;;
44588;SDS011;30298;52.562;13.414;2023-02-11T03:42:45;47.60;;;23.55;;
44588;SDS011;30298;52.562;13.414;2023-02-11T03:45:12;45.15;;;22.48;;
44588;SDS011;30298;52.562;13.414;2023-02-11T03:47:41;46.83;;;22.67;;
44588;SDS011;30298;52.562;13.414;2023-02-11T03:50:09;48.22;;;23.35;;
44588;SDS011;30298;52.562;13.414;2023-02-11T03:52:36;47.22;;;23.48;;
44588;SDS011;30298;52.562;13.414;2023-02-11T03:55:02;47.40;;;25.47;;
44588;SDS011;30298;52.562;13.414;2023-02-11T03:57:30;40.10;;;20.17;;
44588;SDS011;30298;52.562;13.414;2023-02-11T03:59:58;48.35;;;23.05;;
44588;SDS011;30298;52.562;13.414;2023-02-11T04:02:24;46.60;;;23.42;;
44588;SDS011;30298;52.562;13.414;2023-02-11T04:04:51;50.38;;;24.83;;
44588;SDS011;30298;52.562;13.414;2023-02-11T04:07:16;50.87;;;23.77;;
44588;SDS011;30298;52.562;13.414;2023-02-11T04:09:41;57.17;;;24.73;;
44588;SDS011;30298;52.562;13.414;2023-02-11T04:12:07;51.47;;;24.60;;
44588;SDS011;30298;52.562;13.414;2023-02-11T04:14:32;50.90;;;24.37;;
44588;SDS011;30298;52.562;13.414;2023-02-11T04:16:57;47.03;;;23.03;;
44588;SDS011;30298;52.562;13.414;2023-02-11T04:19:23;58.80;;;28.67;;
44588;SDS011;30298;52.562;13.414;2023-02-11T04:21:49;51.47;;;24.93;;
44588;SDS011;30298;52.562;13.414;2023-02-11T04:24:14;58.00;;;25.67;;
44588;SDS011;30298;52.562;13.414;2023-02-11T04:26:39;48.80;;;24.37;;
44588;SDS011;30298;52.562;13.414;2023-02-11T04:29:05;41.13;;;20.07;;
44588;SDS011;30298;52.562;13.414;2023-02-11T04:31:30;45.07;;;21.97;;
44588;SDS011;30298;52.562;13.414;2023-02-11T04:33:55;52.67;;;25.90;;
44588;SDS011;30298;52.562;13.414;2023-02-11T04:36:21;51.42;;;25.02;;
44588;SDS011;30298;52.562;13.414;2023-02-11T04:38:46;55.83;;;25.33;;
44588;SDS011;30298;52.562;13.414;2023-02-11T04:41:11;52.27;;;26.53;;
44588;SDS011;30298;52.562;13.414;2023-02-11T04:43:37;47.00;;;23.30;;
44588;SDS011;30298;52.562;13.414;2023-02-11T04:46:02;59.10;;;26.50;;
44588;SDS011;30298;52.562;13.414;2023-02-11T04:48:27;56.97;;;26.43;;
44588;SDS011;30298;52.562;13.414;2023-02-11T04:50:52;58.30;;;27.90;;
44588;SDS011;30298;52.562;13.414;2023-02-11T04:53:18;52.77;;;26.67;;
44588;SDS011;30298;52.562;13.414;2023-02-11T04:55:43;58.30;;;27.73;;
44588;SDS011;30298;52.562;13.414;2023-02-11T04:58:08;55.33;;;27.97;;
44588;SDS011;30298;52.562;13.414;2023-02-11T05:00:34;52.37;;;26.57;;
44588;SDS011;30298;52.562;13.414;2023-02-11T05:02:59;55.60;;;24.30;;
44588;SDS011;30298;52.562;13.414;2023-02-11T05:05:24;65.27;;;29.10;;
44588;SDS011;30298;52.562;13.414;2023-02-11T05:07:49;57.97;;;25.93;;
44588;SDS011;30298;52.562;13.414;2023-02-11T05:10:15;59.03;;;29.10;;
44588;SDS011;30298;52.562;13.414;2023-02-11T05:12:40;59.27;;;27.23;;
44588;SDS011;30298;52.562;13.414;2023-02-11T05:15:05;49.50;;;24.57;;
44588;SDS011;30298;52.562;13.414;2023-02-11T05:17:31;61.73;;;27.27;;
44588;SDS011;30298;52.562;13.414;2023-02-11T05:19:56;69.23;;;32.30;;
44588;SDS011;30298;52.562;13.414;2023-02-11T05:22:21;65.03;;;30.50;;
44588;SDS011;30298;52.562;13.414;2023-02-11T05:24:47;59.63;;;28.90;;
44588;SDS011;30298;52.562;13.414;2023-02-11T05:27:12;62.17;;;29.37;;
44588;SDS011;30298;52.562;13.414;2023-02-11T05:29:37;65.57;;;29.13;;
44588;SDS011;30298;52.562;13.414;2023-02-11T05:32:02;59.77;;;26.13;;
44588;SDS011;30298;52.562;13.414;2023-02-11T05:34:28;63.33;;;28.90;;
44588;SDS011;30298;52.562;13.414;2023-02-11T05:36:53;55.37;;;25.80;;
44588;SDS011;30298;52.562;13.414;2023-02-11T05:39:18;55.40;;;24.53;;
44588;SDS011;30298;52.562;13.414;2023-02-11T05:41:44;64.77;;;29.37;;
44588;SDS011;30298;52.562;13.414;2023-02-11T05:44:09;58.85;;;27.05;;
44588;SDS011;30298;52.562;13.414;2023-02-11T05:46:34;57.70;;;27.93;;
44588;SDS011;30298;52.562;13.414;2023-02-11T05:49:00;58.63;;;25.17;;
44588;SDS011;30298;52.562;13.414;2023-02-11T05:51:25;46.30;;;22.60;;
44588;SDS011;30298;52.562;13.414;2023-02-11T05:53:50;56.73;;;26.33;;
44588;SDS011;30298;52.562;13.414;2023-02-11T05:56:15;66.53;;;30.00;;
44588;SDS011;30298;52.562;13.414;2023-02-11T05:58:41;61.87;;;28.53;;
44588;SDS011;30298;52.562;13.414;2023-02-11T06:01:06;52.60;;;25.00;;
44588;SDS011;30298;52.562;13.414;2023-02-11T06:03:31;62.67;;;28.20;;
44588;SDS011;30298;52.562;13.414;2023-02-11T06:05:56;54.77;;;24.60;;
44588;SDS011;30298;52.562;13.414;2023-02-11T06:08:22;88.90;;;31.53;;
44588;SDS011;30298;52.562;13.414;2023-02-11T06:10:47;54.67;;;26.43;;
44588;SDS011;30298;52.562;13.414;2023-02-11T06:13:12;76.23;;;29.17;;
44588;SDS011;30298;52.562;13.414;2023-02-11T06:15:37;71.83;;;32.90;;
44588;SDS011;30298;52.562;13.414;2023-02-11T06:18:03;69.53;;;30.63;;
44588;SDS011;30298;52.562;13.414;2023-02-11T06:20:28;71.27;;;32.10;;
44588;SDS011;30298;52.562;13.414;2023-02-11T06:22:53;73.73;;;33.50;;
44588;SDS011;30298;52.562;13.414;2023-02-11T06:25:19;68.57;;;33.77;;
44588;SDS011;30298;52.562;13.414;2023-02-11T06:27:44;74.33;;;31.87;;
44588;SDS011;30298;52.562;13.414;2023-02-11T06:30:09;74.93;;;33.47;;
44588;SDS011;30298;52.562;13.414;2023-02-11T06:32:35;82.53;;;35.30;;
44588;SDS011;30298;52.562;13.414;2023-02-11T06:35:00;75.60;;;33.70;;
44588;SDS011;30298;52.562;13.414;2023-02-11T06:37:26;67.63;;;32.05;;
44588;SDS011;30298;52.562;13.414;2023-02-11T06:39:51;64.97;;;31.60;;
44588;SDS011;30298;52.562;13.414;2023-02-11T06:42:16;82.43;;;33.07;;
44588;SDS011;30298;52.562;13.414;2023-02-11T06:44:41;76.90;;;34.27;;
44588;SDS011;30298;52.562;13.414;2023-02-11T06:47:07;81.60;;;33.77;;
44588;SDS011;30298;52.562;13.414;2023-02-11T06:49:32;79.77;;;36.03;;
44588;SDS011;30298;52.562;13.414;2023-02-11T06:51:57;70.27;;;32.13;;
44588;SDS011;30298;52.562;13.414;2023-02-11T06:54:22;82.30;;;30.27;;
44588;SDS011;30298;52.562;13.414;2023-02-11T06:56:48;78.53;;;34.77;;
44588;SDS011;30298;52.562;13.414;2023-02-11T06:59:17;71.10;;;34.40;;
44588;SDS011;30298;52.562;13.414;2023-02-11T07:01:42;74.22;;;32.63;;
44588;SDS011;30298;52.562;13.414;2023-02-11T07:04:08;78.50;;;32.30;;
44588;SDS011;30298;52.562;13.414;2023-02-11T07:06:33;82.05;;;36.33;;
44588;SDS011;30298;52.562;13.414;2023-02-11T07:08:59;69.53;;;30.03;;
44588;SDS011;30298;52.562;13.414;2023-02-11T07:11:25;72.97;;;33.70;;
44588;SDS011;30298;52.562;13.414;2023-02-11T07:13:51;79.35;;;31.67;;
44588;SDS011;30298;52.562;13.414;2023-02-11T07:16:17;77.32;;;33.60;;
44588;SDS011;30298;52.562;13.414;2023-02-11T07:18:43;80.25;;;32.13;;
44588;SDS011;30298;52.562;13.414;2023-02-11T07:21:10;63.63;;;29.42;;
44588;SDS011;30298;52.562;13.414;2023-02-11T07:23:36;67.95;;;26.42;;
44588;SDS011;30298;52.562;13.414;2023-02-11T07:26:02;90.87;;;35.90;;
44588;SDS011;30298;52.562;13.414;2023-02-11T07:28:28;59.30;;;27.10;;
44588;SDS011;30298;52.562;13.414;2023-02-11T07:30:53;74.30;;;33.23;;
44588;SDS011;30298;52.562;13.414;2023-02-11T07:33:18;86.23;;;34.73;;
44588;SDS011;30298;52.562;13.414;2023-02-11T07:35:43;78.90;;;35.40;;
44588;SDS011;30298;52.562;13.414;2023-02-11T07:38:09;71.63;;;29.87;;
44588;SDS011;30298;52.562;13.414;2023-02-11T07:40:34;79.50;;;35.97;;
44588;SDS011;30298;52.562;13.414;2023-02-11T07:43:00;82.60;;;34.22;;
44588;SDS011;30298;52.562;13.414;2023-02-11T07:45:26;74.25;;;36.08;;
44588;SDS011;30298;52.562;13.414;2023-02-11T07:47:51;73.73;;;33.93;;
44588;SDS011;30298;52.562;13.414;2023-02-11T07:50:16;80.07;;;33.10;;
44588;SDS011;30298;52.562;13.414;2023-02-11T07:52:42;68.10;;;26.73;;
44588;SDS011;30298;52.562;13.414;2023-02-11T07:55:07;65.40;;;28.63;;
44588;SDS011;30298;52.562;13.414;2023-02-11T07:57:34;72.32;;;33.72;;
44588;SDS011;30298;52.562;13.414;2023-02-11T07:59:59;77.63;;;33.05;;
44588;SDS011;30298;52.562;13.414;2023-02-11T08:02:24;68.23;;;30.00;;
44588;SDS011;30298;52.562;13.414;2023-02-11T08:04:50;82.93;;;35.90;;
44588;SDS011;30298;52.562;13.414;2023-02-11T08:07:17;53.27;;;26.23;;
44588;SDS011;30298;52.562;13.414;2023-02-11T08:09:42;59.92;;;27.80;;
44588;SDS011;30298;52.562;13.414;2023-02-11T08:12:08;80.73;;;34.87;;
44588;SDS011;30298;52.562;13.414;2023-02-11T08:14:33;58.30;;;27.35;;
44588;SDS011;30298;52.562;13.414;2023-02-11T08:16:59;70.80;;;30.47;;
44588;SDS011;30298;52.562;13.414;2023-02-11T08:19:24;68.70;;;31.37;;
44588;SDS011;30298;52.562;13.414;2023-02-11T08:21:49;63.47;;;29.07;;
44588;SDS011;30298;52.562;13.414;2023-02-11T08:24:15;67.97;;;31.23;;
44588;SDS011;30298;52.562;13.414;2023-02-11T08:26:41;79.07;;;31.57;;
44588;SDS011;30298;52.562;13.414;2023-02-11T08:29:08;75.73;;;34.67;;
44588;SDS011;30298;52.562;13.414;2023-02-11T08:31:34;76.97;;;33.65;;
44588;SDS011;30298;52.562;13.414;2023-02-11T08:34:00;65.95;;;28.80;;
44588;SDS011;30298;52.562;13.414;2023-02-11T08:36:30;68.88;;;29.75;;
44588;SDS011;30298;52.562;13.414;2023-02-11T08:38:56;73.60;;;31.42;;
44588;SDS011;30298;52.562;13.414;2023-02-11T08:43:47;79.20;;;36.08;;
44588;SDS011;30298;52.562;13.414;2023-02-11T08:48:38;66.38;;;31.58;;
44588;SDS011;30298;52.562;13.414;2023-02-11T08:51:07;73.17;;;31.43;;
44588;SDS011;30298;52.562;13.414;2023-02-11T08:53:33;69.07;;;29.52;;
44588;SDS011;30298;52.562;13.414;2023-02-11T08:55:59;64.20;;;24.77;;
44588;SDS011;30298;52.562;13.414;2023-02-11T08:58:24;67.70;;;32.17;;
44588;SDS011;30298;52.562;13.414;2023-02-11T09:00:49;76.43;;;30.80;;
44588;SDS011;30298;52.562;13.414;2023-02-11T09:03:14;67.20;;;29.73;;
44588;SDS011;30298;52.562;13.414;2023-02-11T09:05:43;69.23;;;29.97;;
44588;SDS011;30298;52.562;13.414;2023-02-11T09:08:10;63.60;;;30.48;;
44588;SDS011;30298;52.562;13.414;2023-02-11T09:10:35;71.45;;;30.15;;
44588;SDS011;30298;52.562;13.414;2023-02-11T09:13:00;77.03;;;32.63;;
44588;SDS011;30298;52.562;13.414;2023-02-11T09:15:26;72.43;;;32.47;;
44588;SDS011;30298;52.562;13.414;2023-02-11T09:17:51;69.77;;;34.77;;
44588;SDS011;30298;52.562;13.414;2023-02-11T09:20:16;69.83;;;32.57;;
44588;SDS011;30298;52.562;13.414;2023-02-11T09:22:42;75.93;;;33.40;;
44588;SDS011;30298;52.562;13.414;2023-02-11T09:25:07;67.63;;;29.30;;
44588;SDS011;30298;52.562;13.414;2023-02-11T09:27:32;69.07;;;29.33;;
44588;SDS011;30298;52.562;13.414;2023-02-11T09:29:58;75.93;;;31.60;;
44588;SDS011;30298;52.562;13.414;2023-02-11T09:32:23;67.60;;;30.77;;
44588;SDS011;30298;52.562;13.414;2023-02-11T09:34:48;72.70;;;30.50;;
44588;SDS011;30298;52.562;13.414;2023-02-11T09:37:13;72.90;;;32.60;;
44588;SDS011;30298;52.562;13.414;2023-02-11T09:39:39;61.77;;;29.90;;
44588;SDS011;30298;52.562;13.414;2023-02-11T09:42:09;70.25;;;31.17;;
44588;SDS011;30298;52.562;13.414;2023-02-11T09:44:44;62.60;;;27.98;;
44588;SDS011;30298;52.562;13.414;2023-02-11T09:49:43;56.47;;;25.58;;
44588;SDS011;30298;52.562;13.414;2023-02-11T09:54:44;52.28;;;24.00;;
44588;SDS011;30298;52.562;13.414;2023-02-11T09:57:13;63.65;;;25.08;;
44588;SDS011;30298;52.562;13.414;2023-02-11T09:59:39;71.00;;;29.13;;
44588;SDS011;30298;52.562;13.414;2023-02-11T10:20:54;68.43;;;31.23;;
44588;SDS011;30298;52.562;13.414;2023-02-11T10:23:26;63.13;;;27.27;;
44588;SDS011;30298;52.562;13.414;2023-02-11T10:25:54;73.35;;;33.17;;
44588;SDS011;30298;52.562;13.414;2023-02-11T10:28:26;64.45;;;29.38;;
44588;SDS011;30298;52.562;13.414;2023-02-11T10:31:08;62.70;;;27.02;;
44588;SDS011;30298;52.562;13.414;2023-02-11T10:36:19;67.97;;;28.70;;
44588;SDS011;30298;52.562;13.414;2023-02-11T10:38:47;77.00;;;33.40;;
44588;SDS011;30298;52.562;13.414;2023-02-11T10:41:15;67.27;;;30.33;;
44588;SDS011;30298;52.562;13.414;2023-02-11T10:43:41;68.70;;;29.60;;
44588;SDS011;30298;52.562;13.414;2023-02-11T10:46:08;72.80;;;31.07;;
44588;SDS011;30298;52.562;13.414;2023-02-11T10:48:45;77.13;;;32.40;;
44588;SDS011;30298;52.562;13.414;2023-02-11T10:51:17;75.38;;;33.03;;
44588;SDS011;30298;52.562;13.414;2023-02-11T10:53:44;77.90;;;32.50;;
44588;SDS011;30298;52.562;13.414;2023-02-11T10:56:10;60.63;;;27.13;;
44588;SDS011;30298;52.562;13.414;2023-02-11T10:58:39;66.82;;;27.20;;
44588;SDS011;30298;52.562;13.414;2023-02-11T11:01:05;76.82;;;28.55;;
44588;SDS011;30298;52.562;13.414;2023-02-11T11:03:33;69.32;;;32.20;;
44588;SDS011;30298;52.562;13.414;2023-02-11T11:06:00;62.88;;;27.65;;
44588;SDS011;30298;52.562;13.414;2023-02-11T11:08:36;62.05;;;25.42;;
44588;SDS011;30298;52.562;13.414;2023-02-11T11:11:03;79.60;;;29.97;;
44588;SDS011;30298;52.562;13.414;2023-02-11T11:13:30;68.20;;;29.02;;
44588;SDS011;30298;52.562;13.414;2023-02-11T11:18:34;61.83;;;27.15;;
44588;SDS011;30298;52.562;13.414;2023-02-11T11:21:00;65.00;;;27.45;;
44588;SDS011;30298;52.562;13.414;2023-02-11T11:23:26;51.30;;;20.48;;
44588;SDS011;30298;52.562;13.414;2023-02-11T11:26:00;58.20;;;23.85;;
44588;SDS011;30298;52.562;13.414;2023-02-11T11:28:27;55.70;;;24.75;;
44588;SDS011;30298;52.562;13.414;2023-02-11T11:33:20;70.60;;;28.53;;
44588;SDS011;30298;52.562;13.414;2023-02-11T11:36:05;55.67;;;26.17;;
44588;SDS011;30298;52.562;13.414;2023-02-11T11:38:31;63.10;;;26.73;;
44588;SDS011;30298;52.562;13.414;2023-02-11T11:41:19;73.18;;;29.77;;
44588;SDS011;30298;52.562;13.414;2023-02-11T11:46:26;67.88;;;29.15;;
44588;SDS011;30298;52.562;13.414;2023-02-11T11:48:53;57.35;;;27.83;;
44588;SDS011;30298;52.562;13.414;2023-02-11T11:51:20;59.60;;;24.73;;
44588;SDS011;30298;52.562;13.414;2023-02-11T11:53:59;70.25;;;28.17;;
44588;SDS011;30298;52.562;13.414;2023-02-11T11:58:49;62.63;;;25.23;;
44588;SDS011;30298;52.562;13.414;2023-02-11T12:06:50;64.72;;;23.90;;
44588;SDS011;30298;52.562;13.414;2023-02-11T12:09:42;56.08;;;22.77;;
44588;SDS011;30298;52.562;13.414;2023-02-11T12:22:09;45.73;;;23.27;;
44588;SDS011;30298;52.562;13.414;2023-02-11T12:27:49;49.78;;;21.98;;
44588;SDS011;30298;52.562;13.414;2023-02-11T12:30:38;42.72;;;20.25;;
44588;SDS011;30298;52.562;13.414;2023-02-11T12:33:06;46.35;;;21.30;;
44588;SDS011;30298;52.562;13.414;2023-02-11T12:38:25;40.88;;;19.77;;
44588;SDS011;30298;52.562;13.414;2023-02-11T12:43:27;33.95;;;16.77;;
44588;SDS011;30298;52.562;13.414;2023-02-11T12:58:58;25.70;;;14.93;;
44588;SDS011;30298;52.562;13.414;2023-02-11T13:01:32;37.95;;;19.45;;
44588;SDS011;30298;52.562;13.414;2023-02-11T13:04:11;39.30;;;20.92;;
44588;SDS011;30298;52.562;13.414;2023-02-11T13:06:50;41.03;;;20.20;;
44588;SDS011;30298;52.562;13.414;2023-02-11T13:09:19;46.28;;;20.85;;
44588;SDS011;30298;52.562;13.414;2023-02-11T13:11:48;39.85;;;18.67;;
44588;SDS011;30298;52.562;13.414;2023-02-11T13:14:35;40.15;;;18.48;;
44588;SDS011;30298;52.562;13.414;2023-02-11T13:17:03;43.00;;;19.88;;
44588;SDS011;30298;52.562;13.414;2023-02-11T13:19:32;38.85;;;19.27;;
44588;SDS011;30298;52.562;13.414;2023-02-11T13:24:41;37.22;;;17.48;;
44588;SDS011;30298;52.562;13.414;2023-02-11T13:32:09;41.63;;;21.00;;
44588;SDS011;30298;52.562;13.414;2023-02-11T13:40:05;26.58;;;13.85;;
44588;SDS011;30298;52.562;13.414;2023-02-11T13:42:30;32.65;;;16.52;;
44588;SDS011;30298;52.562;13.414;2023-02-11T13:44:56;35.83;;;17.65;;
44588;SDS011;30298;52.562;13.414;2023-02-11T13:47:26;32.38;;;15.32;;
44588;SDS011;30298;52.562;13.414;2023-02-11T13:49:55;29.83;;;15.80;;
44588;SDS011;30298;52.562;13.414;2023-02-11T13:52:22;26.50;;;13.93;;
44588;SDS011;30298;52.562;13.414;2023-02-11T13:54:49;31.23;;;16.02;;
44588;SDS011;30298;52.562;13.414;2023-02-11T13:59:44;33.22;;;15.60;;
44588;SDS011;30298;52.562;13.414;2023-02-11T14:10:47;30.95;;;15.13;;
44588;SDS011;30298;52.562;13.414;2023-02-11T14:16:04;23.30;;;13.10;;
44588;SDS011;30298;52.562;13.414;2023-02-11T14:23:42;34.25;;;16.08;;
44588;SDS011;30298;52.562;13.414;2023-02-11T14:28:53;32.90;;;16.90;;
44588;SDS011;30298;52.562;13.414;2023-02-11T14:31:26;24.60;;;12.73;;
44588;SDS011;30298;52.562;13.414;2023-02-11T14:39:19;30.27;;;16.08;;
44588;SDS011;30298;52.562;13.414;2023-02-11T14:41:46;25.85;;;13.05;;
44588;SDS011;30298;52.562;13.414;2023-02-11T14:44:31;30.38;;;14.35;;
44588;SDS011;30298;52.562;13.414;2023-02-11T14:46:57;31.02;;;15.73;;
44588;SDS011;30298;52.562;13.414;2023-02-11T14:49:24;24.80;;;11.77;;
44588;SDS011;30298;52.562;13.414;2023-02-11T14:51:51;25.92;;;13.70;;
44588;SDS011;30298;52.562;13.414;2023-02-11T14:54:18;27.92;;;15.15;;
44588;SDS011;30298;52.562;13.414;2023-02-11T14:57:03;26.05;;;13.77;;
44588;SDS011;30298;52.562;13.414;2023-02-11T14:59:29;24.67;;;13.20;;
44588;SDS011;30298;52.562;13.414;2023-02-11T15:01:54;23.47;;;11.73;;
44588;SDS011;30298;52.562;13.414;2023-02-11T15:06:48;22.15;;;12.48;;
44588;SDS011;30298;52.562;13.414;2023-02-11T15:09:22;26.77;;;13.23;;
44588;SDS011;30298;52.562;13.414;2023-02-11T15:11:52;28.60;;;15.40;;
44588;SDS011;30298;52.562;13.414;2023-02-11T15:14:22;30.85;;;14.93;;
44588;SDS011;30298;52.562;13.414;2023-02-11T15:16:48;26.50;;;14.30;;
44588;SDS011;30298;52.562;13.414;2023-02-11T15:19:25;26.83;;;14.45;;
44588;SDS011;30298;52.562;13.414;2023-02-11T15:21:53;27.67;;;12.85;;
44588;SDS011;30298;52.562;13.414;2023-02-11T15:26:44;19.52;;;10.93;;
44588;SDS011;30298;52.562;13.414;2023-02-11T15:29:14;25.23;;;13.80;;
44588;SDS011;30298;52.562;13.414;2023-02-11T15:31:40;23.08;;;12.52;;
44588;SDS011;30298;52.562;13.414;2023-02-11T15:34:05;19.00;;;11.00;;
44588;SDS011;30298;52.562;13.414;2023-02-11T15:36:31;22.15;;;11.10;;
44588;SDS011;30298;52.562;13.414;2023-02-11T15:41:42;23.13;;;12.48;;
44588;SDS011;30298;52.562;13.414;2023-02-11T15:44:25;22.00;;;11.80;;
44588;SDS011;30298;52.562;13.414;2023-02-11T15:46:50;28.60;;;15.70;;
44588;SDS011;30298;52.562;13.414;2023-02-11T15:49:15;31.10;;;14.03;;
44588;SDS011;30298;52.562;13.414;2023-02-11T15:51:43;28.83;;;13.23;;
44588;SDS011;30298;52.562;13.414;2023-02-11T15:56:36;22.77;;;12.10;;
44588;SDS011;30298;52.562;13.414;2023-02-11T16:02:08;22.90;;;12.63;;
44588;SDS011;30298;52.562;13.414;2023-02-11T16:04:33;24.85;;;13.02;;
44588;SDS011;30298;52.562;13.414;2023-02-11T16:06:59;30.63;;;12.85;;
44588;SDS011;30298;52.562;13.414;2023-02-11T16:09:32;31.57;;;15.10;;
44588;SDS011;30298;52.562;13.414;2023-02-11T16:12:21;23.88;;;12.93;;
44588;SDS011;30298;52.562;13.414;2023-02-11T16:14:46;23.08;;;12.77;;
44588;SDS011;30298;52.562;13.414;2023-02-11T16:17:12;25.97;;;12.57;;
44588;SDS011;30298;52.562;13.414;2023-02-11T16:19:46;20.90;;;12.13;;
44588;SDS011;30298;52.562;13.414;2023-02-11T16:24:37;15.38;;;8.35;;
44588;SDS011;30298;52.562;13.414;2023-02-11T16:27:04;22.77;;;11.13;;
44588;SDS011;30298;52.562;13.414;2023-02-11T16:29:31;25.08;;;13.43;;
44588;SDS011;30298;52.562;13.414;2023-02-11T16:32:07;22.35;;;11.88;;
44588;SDS011;30298;52.562;13.414;2023-02-11T16:34:33;23.95;;;13.20;;
44588;SDS011;30298;52.562;13.414;2023-02-11T16:36:59;17.90;;;9.13;;
44588;SDS011;30298;52.562;13.414;2023-02-11T16:39:26;24.55;;;12.85;;
44588;SDS011;30298;52.562;13.414;2023-02-11T16:41:52;23.13;;;12.57;;
44588;SDS011;30298;52.562;13.414;2023-02-11T16:44:17;23.43;;;12.77;;
44588;SDS011;30298;52.562;13.414;2023-02-11T16:46:42;24.73;;;13.30;;
44588;SDS011;30298;52.562;13.414;2023-02-11T16:49:09;21.00;;;11.23;;
44588;SDS011;30298;52.562;13.414;2023-02-11T16:51:39;18.25;;;10.98;;
44588;SDS011;30298;52.562;13.414;2023-02-11T16:54:05;22.05;;;11.05;;
44588;SDS011;30298;52.562;13.414;2023-02-11T16:56:30;13.73;;;8.23;;
44588;SDS011;30298;52.562;13.414;2023-02-11T16:58:55;19.07;;;10.93;;
44588;SDS011;30298;52.562;13.414;2023-02-11T17:01:21;21.17;;;11.23;;
44588;SDS011;30298;52.562;13.414;2023-02-11T17:03:46;20.00;;;11.00;;
44588;SDS011;30298;52.562;13.414;2023-02-11T17:06:12;18.42;;;10.60;;
44588;SDS011;30298;52.562;13.414;2023-02-11T17:08:38;20.17;;;11.30;;